createdAt,value
2018-05-26T00:00:29.670Z,94.70
2018-05-26T00:02:57.136Z,94.80
2018-05-26T00:05:24.688Z,95.00
2018-05-26T00:07:52.098Z,95.10
2018-05-26T00:10:19.559Z,95.40
2018-05-26T00:12:46.984Z,95.70
2018-05-26T00:15:14.419Z,95.60
2018-05-26T00:17:41.872Z,95.20
2018-05-26T00:20:09.323Z,95.20
2018-05-26T00:22:36.752Z,95.40
2018-05-26T00:25:04.971Z,95.10
2018-05-26T00:27:32.399Z,95.10
2018-05-26T00:29:59.853Z,94.90
2018-05-26T00:32:27.347Z,94.80
2018-05-26T00:34:54.808Z,94.80
2018-05-26T00:37:22.248Z,95.20
2018-05-26T00:39:49.680Z,95.00
2018-05-26T00:42:17.884Z,95.00
2018-05-26T00:44:45.358Z,94.90
2018-05-26T00:47:12.842Z,95.10
2018-05-26T00:49:40.284Z,95.00
2018-05-26T00:52:07.716Z,95.40
2018-05-26T00:54:35.196Z,95.60
2018-05-26T00:57:02.704Z,95.80
2018-05-26T00:59:30.209Z,95.80
2018-05-26T01:01:57.639Z,95.60
2018-05-26T01:04:25.074Z,95.50
2018-05-26T01:06:53.300Z,96.00
2018-05-26T01:09:20.779Z,96.00
2018-05-26T01:11:48.210Z,96.00
2018-05-26T01:14:15.639Z,95.80
2018-05-26T01:16:43.128Z,95.90
2018-05-26T01:19:10.551Z,95.50
2018-05-26T01:21:38.004Z,95.60
2018-05-26T01:24:05.454Z,95.60
2018-05-26T01:26:33.701Z,96.50
2018-05-26T01:29:01.128Z,96.10
2018-05-26T01:31:28.552Z,95.90
2018-05-26T01:33:56.760Z,95.80
2018-05-26T01:36:24.223Z,95.80
2018-05-26T01:38:51.665Z,95.80
2018-05-26T01:41:19.142Z,95.90
2018-05-26T01:43:46.569Z,95.90
2018-05-26T01:46:14.053Z,95.80
2018-05-26T01:48:41.483Z,95.80
2018-05-26T01:51:08.969Z,95.90
2018-05-26T01:53:36.434Z,96.00
2018-05-26T01:56:04.327Z,96.10
2018-05-26T01:58:32.628Z,96.20
2018-05-26T02:01:01.166Z,96.10
2018-05-26T02:03:28.624Z,96.10
2018-05-26T02:05:56.059Z,96.10
2018-05-26T02:08:23.571Z,96.10
2018-05-26T02:10:51.785Z,96.50
2018-05-26T02:13:19.267Z,96.50
2018-05-26T02:15:46.720Z,96.50
2018-05-26T02:18:14.152Z,96.70
2018-05-26T02:20:41.659Z,96.70
2018-05-26T02:23:10.629Z,96.70
2018-05-26T02:25:38.092Z,96.70
2018-05-26T02:28:05.547Z,96.70
2018-05-26T02:30:33.003Z,96.50
2018-05-26T02:33:00.458Z,96.40
2018-05-26T02:35:27.895Z,96.50
2018-05-26T02:37:55.324Z,96.30
2018-05-26T02:40:23.556Z,96.90
2018-05-26T02:42:51.018Z,96.90
2018-05-26T02:45:18.459Z,96.70
2018-05-26T02:47:45.891Z,96.50
2018-05-26T02:50:13.380Z,96.60
2018-05-26T02:52:41.746Z,96.60
2018-05-26T02:55:09.231Z,96.60
2018-05-26T02:57:36.672Z,96.70
2018-05-26T03:00:04.147Z,96.80
2018-05-26T03:02:31.583Z,97.00
2018-05-26T03:05:04.588Z,96.80
2018-05-26T03:07:37.808Z,96.90
2018-05-26T03:10:11.027Z,96.80
2018-05-26T03:12:45.054Z,97.00
2018-05-26T03:15:11.984Z,96.90
2018-05-26T03:17:57.883Z,96.80
2018-05-26T03:20:25.320Z,96.80
2018-05-26T03:22:53.547Z,97.00
2018-05-26T03:25:20.985Z,97.00
2018-05-26T03:27:48.475Z,97.00
2018-05-26T03:30:15.924Z,96.90
2018-05-26T03:32:43.384Z,97.00
2018-05-26T03:35:10.845Z,97.20
2018-05-26T03:37:38.284Z,97.00
2018-05-26T03:40:05.771Z,97.00
2018-05-26T03:42:33.232Z,97.00
2018-05-26T03:45:00.668Z,97.00
2018-05-26T03:47:28.109Z,97.00
2018-05-26T03:49:55.535Z,96.90
2018-05-26T03:52:24.136Z,97.00
2018-05-26T03:58:14.204Z,97.10
2018-05-26T04:00:41.741Z,97.40
2018-05-26T04:03:09.228Z,97.40
2018-05-26T04:05:37.439Z,97.70
2018-05-26T04:08:04.892Z,97.20
2018-05-26T04:10:32.384Z,97.30
2018-05-26T04:12:59.828Z,97.30
2018-05-26T04:15:27.259Z,97.00
2018-05-26T04:17:55.461Z,97.20
2018-05-26T04:20:22.891Z,97.20
2018-05-26T04:22:51.093Z,97.00
2018-05-26T04:25:18.523Z,97.00
2018-05-26T04:27:46.727Z,96.90
2018-05-26T04:30:14.183Z,96.90
2018-05-26T04:32:41.660Z,96.90
2018-05-26T04:35:09.099Z,97.10
2018-05-26T04:37:36.536Z,96.90
2018-05-26T04:40:04.038Z,96.80
2018-05-26T04:42:31.574Z,96.70
2018-05-26T04:44:58.991Z,96.40
2018-05-26T04:47:27.195Z,96.80
2018-05-26T04:49:54.671Z,96.70
2018-05-26T04:52:22.131Z,96.90
2018-05-26T04:54:49.566Z,96.80
2018-05-26T04:57:17.003Z,96.70
2018-05-26T04:59:44.802Z,96.50
2018-05-26T05:02:12.227Z,96.30
2018-05-26T05:04:40.428Z,96.30
2018-05-26T05:07:07.900Z,96.30
2018-05-26T05:09:35.367Z,96.10
2018-05-26T05:12:02.825Z,96.20
2018-05-26T05:14:30.273Z,96.00
2018-05-26T05:16:57.736Z,96.00
2018-05-26T05:19:25.249Z,95.90
2018-05-26T05:21:52.656Z,95.90
2018-05-26T05:24:20.098Z,95.80
2018-05-26T05:26:47.554Z,95.50
2018-05-26T05:29:15.735Z,95.50
2018-05-26T05:31:43.305Z,95.50
2018-05-26T05:34:10.766Z,95.40
2018-05-26T05:36:38.279Z,95.50
2018-05-26T05:39:06.508Z,95.40
2018-05-26T05:41:33.948Z,95.30
2018-05-26T05:44:01.421Z,95.40
2018-05-26T05:46:28.889Z,95.40
2018-05-26T05:48:56.334Z,95.30
2018-05-26T05:51:23.769Z,95.50
2018-05-26T05:53:51.207Z,95.60
2018-05-26T05:56:18.670Z,95.40
2018-05-26T05:58:46.076Z,95.20
2018-05-26T06:01:13.510Z,94.90
2018-05-26T06:03:40.944Z,94.70
2018-05-26T06:06:08.394Z,94.70
2018-05-26T06:08:36.956Z,94.30
2018-05-26T06:11:05.168Z,94.30
2018-05-26T06:13:32.605Z,94.30
2018-05-26T06:16:00.087Z,94.10
2018-05-26T06:18:27.530Z,93.80
2018-05-26T06:20:55.738Z,93.40
2018-05-26T06:23:23.174Z,93.40
2018-05-26T06:25:51.032Z,93.20
2018-05-26T06:28:19.239Z,93.00
2018-05-26T06:30:46.669Z,92.90
2018-05-26T06:33:14.097Z,92.80
2018-05-26T06:35:42.315Z,92.10
2018-05-26T06:38:09.731Z,92.10
2018-05-26T06:40:37.938Z,87.50
2018-05-26T06:43:05.400Z,87.50
2018-05-26T06:45:32.832Z,83.20
2018-05-26T06:48:01.058Z,70.00
2018-05-26T06:50:28.509Z,70.00
2018-05-26T06:52:56.795Z,57.70
2018-05-26T06:55:24.256Z,57.80
2018-05-26T06:57:51.804Z,54.70
2018-05-26T07:00:19.267Z,52.60
2018-05-26T07:02:46.726Z,49.90
2018-05-26T07:05:14.160Z,48.50
2018-05-26T07:07:41.588Z,47.80
2018-05-26T07:10:09.820Z,44.80
2018-05-26T07:12:37.255Z,44.70
2018-05-26T07:15:04.729Z,43.00
2018-05-26T07:17:32.173Z,41.60
2018-05-26T07:19:59.639Z,41.20
2018-05-26T07:22:27.118Z,39.20
2018-05-26T07:24:54.552Z,36.30
2018-05-26T07:27:21.984Z,35.00
2018-05-26T07:29:49.458Z,35.50
2018-05-26T07:32:16.896Z,36.80
2018-05-26T07:34:45.802Z,34.50
2018-05-26T07:37:13.223Z,34.50
2018-05-26T07:39:41.433Z,33.30
2018-05-26T07:42:08.853Z,33.20
2018-05-26T07:44:37.053Z,32.80
2018-05-26T07:47:04.479Z,32.70
2018-05-26T07:49:32.694Z,31.90
2018-05-26T07:52:00.145Z,31.90
2018-05-26T07:54:28.320Z,30.70
2018-05-26T07:56:55.761Z,30.70
2018-05-26T07:59:23.967Z,29.80
2018-05-26T08:01:51.392Z,29.70
2018-05-26T08:04:19.809Z,31.10
2018-05-26T08:06:47.472Z,31.10
2018-05-26T08:09:15.187Z,30.90
2018-05-26T08:11:43.576Z,30.40
2018-05-26T08:14:12.023Z,30.70
2018-05-26T08:16:39.683Z,30.70
2018-05-26T08:19:07.363Z,30.00
2018-05-26T08:21:37.727Z,31.70
2018-05-26T08:24:05.308Z,31.70
2018-05-26T08:26:32.948Z,29.80
2018-05-26T08:29:01.602Z,29.60
2018-05-26T08:31:29.213Z,30.00
2018-05-26T08:33:56.829Z,32.20
2018-05-26T08:36:24.578Z,33.80
2018-05-26T08:38:52.023Z,34.50
2018-05-26T08:41:19.452Z,35.40
2018-05-26T08:43:46.961Z,35.60
2018-05-26T08:46:14.396Z,39.60
2018-05-26T08:48:41.830Z,41.00
2018-05-26T08:51:09.363Z,40.60
2018-05-26T08:53:36.759Z,41.60
2018-05-26T08:56:04.198Z,40.50
2018-05-26T08:58:31.628Z,39.00
2018-05-26T09:00:59.838Z,39.30
2018-05-26T09:03:27.279Z,39.30
2018-05-26T09:05:54.721Z,40.00
2018-05-26T09:08:22.154Z,41.50
2018-05-26T09:10:49.588Z,42.40
2018-05-26T09:13:17.024Z,42.60
2018-05-26T09:15:44.465Z,41.40
2018-05-26T09:18:11.900Z,40.60
2018-05-26T09:20:40.098Z,42.00
2018-05-26T09:23:07.526Z,41.40
2018-05-26T09:25:35.776Z,39.60
2018-05-26T09:28:03.919Z,40.60
2018-05-26T09:30:31.373Z,42.20
2018-05-26T09:32:59.239Z,40.00
2018-05-26T09:35:27.719Z,40.10
2018-05-26T09:37:55.140Z,40.60
2018-05-26T09:40:23.343Z,40.90
2018-05-26T09:42:50.770Z,40.80
2018-05-26T09:45:18.967Z,42.30
2018-05-26T09:47:46.399Z,42.20
2018-05-26T09:50:13.827Z,40.90
2018-05-26T09:52:41.258Z,39.90
2018-05-26T09:55:08.722Z,39.10
2018-05-26T09:57:36.147Z,38.80
2018-05-26T10:00:03.606Z,39.20
2018-05-26T10:02:31.809Z,39.00
2018-05-26T10:04:59.268Z,39.00
2018-05-26T10:07:26.711Z,36.80
2018-05-26T10:09:54.147Z,35.70
2018-05-26T10:12:22.361Z,36.70
2018-05-26T10:14:49.782Z,36.60
2018-05-26T10:17:17.979Z,39.00
2018-05-26T10:19:46.550Z,37.20
2018-05-26T10:22:13.983Z,37.10
2018-05-26T10:24:42.191Z,37.30
2018-05-26T10:27:09.615Z,37.30
2018-05-26T10:29:37.807Z,37.80
2018-05-26T10:32:05.244Z,37.90
2018-05-26T10:34:33.460Z,39.20
2018-05-26T10:37:00.888Z,39.10
2018-05-26T11:12:18.887Z,44.70
2018-05-26T11:14:46.322Z,45.90
2018-05-26T11:17:13.802Z,42.90
2018-05-26T11:19:41.225Z,42.90
2018-05-26T11:22:09.439Z,37.90
2018-05-26T11:24:36.906Z,37.80
2018-05-26T11:27:04.334Z,38.30
2018-05-26T11:29:31.759Z,37.50
2018-05-26T11:31:59.200Z,38.10
2018-05-26T11:34:26.662Z,38.40
2018-05-26T11:36:54.183Z,37.50
2018-05-26T11:39:21.600Z,37.60
2018-05-26T11:41:49.837Z,38.90
2018-05-26T11:44:17.264Z,38.90
2018-05-26T11:46:44.704Z,37.10
2018-05-26T11:49:12.911Z,36.50
2018-05-26T11:51:40.351Z,36.50
2018-05-26T11:54:07.797Z,36.00
2018-05-26T11:56:35.996Z,36.40
2018-05-26T11:59:03.423Z,36.50
2018-05-26T12:01:31.623Z,36.60
2018-05-26T12:03:59.068Z,36.60
2018-05-26T12:06:26.510Z,36.90
2018-05-26T12:08:54.703Z,35.60
2018-05-26T12:11:22.155Z,35.60
2018-05-26T12:13:49.593Z,37.40
2018-05-26T12:16:17.802Z,36.10
2018-05-26T12:18:46.147Z,36.00
2018-05-26T12:21:14.348Z,34.90
2018-05-26T12:23:41.785Z,34.80
2018-05-26T12:26:09.990Z,37.20
2018-05-26T12:28:37.411Z,37.10
2018-05-26T12:31:05.620Z,32.50
2018-05-26T12:33:33.983Z,32.50
2018-05-26T12:36:02.197Z,34.90
2018-05-26T12:38:29.638Z,34.90
2018-05-26T12:40:57.063Z,34.20
2018-05-26T12:43:25.288Z,37.60
2018-05-26T12:45:52.716Z,37.30
2018-05-26T12:48:20.153Z,34.70
2018-05-26T12:50:48.360Z,33.80
2018-05-26T12:53:15.803Z,33.80
2018-05-26T12:55:43.233Z,34.10
2018-05-26T12:58:11.435Z,37.60
2018-05-26T13:00:38.874Z,37.60
2018-05-26T13:03:07.081Z,36.00
2018-05-26T13:05:34.515Z,36.10
2018-05-26T13:08:01.953Z,34.50
2018-05-26T13:10:30.155Z,32.60
2018-05-26T13:12:58.196Z,32.60
2018-05-26T13:15:25.620Z,32.60
2018-05-26T13:17:53.085Z,32.20
2018-05-26T13:20:20.515Z,32.30
2018-05-26T13:22:47.955Z,32.60
2018-05-26T13:25:15.383Z,32.70
2018-05-26T13:27:43.587Z,31.50
2018-05-26T13:30:11.021Z,31.40
2018-05-26T13:32:39.251Z,31.50
2018-05-26T13:35:06.667Z,31.50
2018-05-26T13:37:34.869Z,30.90
2018-05-26T13:40:02.303Z,30.10
2018-05-26T13:42:30.502Z,32.20
2018-05-26T13:44:57.936Z,32.20
2018-05-26T13:47:26.160Z,30.30
2018-05-26T13:49:53.619Z,30.30
2018-05-26T13:52:21.135Z,30.00
2018-05-26T13:54:48.496Z,30.50
2018-05-26T13:57:15.935Z,30.30
2018-05-26T13:59:44.130Z,30.80
2018-05-26T14:02:11.569Z,30.80
2018-05-26T14:04:39.778Z,30.40
2018-05-26T14:07:07.216Z,30.40
2018-05-26T14:09:34.661Z,30.70
2018-05-26T14:12:02.861Z,30.10
2018-05-26T14:14:30.312Z,30.00
2018-05-26T14:16:57.743Z,30.70
2018-05-26T14:19:25.955Z,29.90
2018-05-26T14:21:53.465Z,29.90
2018-05-26T14:24:20.908Z,29.80
2018-05-26T14:26:48.342Z,31.10
2018-05-26T14:29:15.788Z,30.90
2018-05-26T14:31:43.219Z,30.00
2018-05-26T14:34:10.660Z,30.70
2018-05-26T14:36:38.866Z,30.40
2018-05-26T14:39:06.296Z,30.40
2018-05-26T14:41:34.496Z,30.90
2018-05-26T14:44:01.931Z,30.90
2018-05-26T14:46:30.123Z,30.10
2018-05-26T14:48:57.568Z,30.10
2018-05-26T14:51:25.783Z,30.00
2018-05-26T14:53:53.233Z,29.90
2018-05-26T14:56:20.656Z,31.30
2018-05-26T14:58:48.876Z,30.40
2018-05-26T15:01:16.299Z,30.40
2018-05-26T15:03:43.743Z,32.70
2018-05-26T15:06:11.961Z,30.20
2018-05-26T15:08:39.396Z,30.20
2018-05-26T15:11:06.827Z,30.70
2018-05-26T15:13:35.046Z,31.20
2018-05-26T15:16:02.488Z,31.20
2018-05-26T15:21:03.886Z,31.60
2018-05-26T15:23:31.320Z,31.00
2018-05-26T15:25:58.756Z,32.20
2018-05-26T15:28:26.967Z,32.10
2018-05-26T15:30:54.475Z,32.10
2018-05-26T15:33:21.865Z,33.00
2018-05-26T15:35:49.315Z,33.20
2018-05-26T15:38:16.754Z,32.00
2018-05-26T15:40:44.959Z,31.80
2018-05-26T15:43:12.413Z,31.80
2018-05-26T15:45:39.843Z,32.50
2018-05-26T15:48:08.049Z,33.00
2018-05-26T15:50:35.484Z,32.90
2018-05-26T15:53:03.681Z,32.80
2018-05-26T15:55:31.117Z,32.80
2018-05-26T15:57:59.325Z,33.70
2018-05-26T16:00:26.783Z,33.70
2018-05-26T16:02:54.247Z,34.10
2018-05-26T16:05:21.668Z,34.40
2018-05-26T16:07:49.104Z,33.10
2018-05-26T16:10:17.323Z,33.00
2018-05-26T16:12:44.745Z,32.90
2018-05-26T16:15:12.957Z,35.20
2018-05-26T16:17:40.386Z,35.20
2018-05-26T16:20:08.599Z,33.70
2018-05-26T16:22:36.023Z,33.70
2018-05-26T16:25:03.465Z,34.00
2018-05-26T16:27:31.663Z,33.80
2018-05-26T16:29:59.099Z,33.80
2018-05-26T16:32:27.304Z,34.30
2018-05-26T16:34:54.756Z,34.20
2018-05-26T16:37:22.284Z,34.10
2018-05-26T16:39:49.724Z,34.20
2018-05-26T16:42:17.172Z,33.50
2018-05-26T16:44:44.608Z,34.60
2018-05-26T16:47:12.062Z,34.50
2018-05-26T16:49:39.500Z,35.30
2018-05-26T16:52:06.934Z,35.50
2018-05-26T16:54:35.206Z,35.20
2018-05-26T16:57:03.412Z,34.70
2018-05-26T16:59:30.847Z,34.70
2018-05-26T17:01:59.056Z,36.80
2018-05-26T17:04:26.492Z,36.70
2018-05-26T17:06:53.927Z,35.80
2018-05-26T17:09:21.379Z,36.10
2018-05-26T17:11:48.798Z,35.00
2018-05-26T17:14:16.243Z,37.00
2018-05-26T17:16:43.680Z,35.50
2018-05-26T17:19:11.113Z,35.80
2018-05-26T17:21:38.548Z,36.50
2018-05-26T17:24:05.984Z,37.60
2018-05-26T17:26:33.943Z,36.60
2018-05-26T17:29:01.383Z,36.60
2018-05-26T17:31:28.833Z,35.30
2018-05-26T17:33:57.040Z,35.70
2018-05-26T17:36:24.477Z,35.60
2018-05-26T17:38:51.903Z,36.10
2018-05-26T17:41:20.107Z,36.50
2018-05-26T17:43:47.546Z,36.40
2018-05-26T17:46:15.758Z,36.10
2018-05-26T17:48:43.208Z,36.10
2018-05-26T17:51:10.635Z,36.10
2018-05-26T17:53:38.836Z,36.60
2018-05-26T17:56:07.167Z,36.60
2018-05-26T17:58:34.599Z,36.00
2018-05-26T18:01:02.043Z,37.80
2018-05-26T18:03:29.477Z,37.60
2018-05-26T18:05:56.946Z,37.60
2018-05-26T18:08:24.367Z,36.80
2018-05-26T18:10:51.811Z,37.80
2018-05-26T18:13:19.260Z,37.50
2018-05-26T18:15:46.825Z,37.80
2018-05-26T18:18:14.266Z,38.60
2018-05-26T18:20:41.712Z,38.20
2018-05-26T18:23:09.143Z,39.00
2018-05-26T18:25:36.591Z,39.60
2018-05-26T18:28:04.775Z,38.70
2018-05-26T18:30:32.234Z,38.60
2018-05-26T18:32:59.664Z,38.30
2018-05-26T18:35:27.872Z,38.60
2018-05-26T18:37:55.306Z,38.50
2018-05-26T18:40:23.527Z,39.30
2018-05-26T18:42:51.020Z,39.20
2018-05-26T18:45:19.056Z,39.40
2018-05-26T18:47:46.939Z,39.90
2018-05-26T18:50:14.376Z,41.00
2018-05-26T18:52:41.811Z,40.50
2018-05-26T18:55:09.242Z,39.60
2018-05-26T18:57:36.671Z,40.20
2018-05-26T19:00:04.201Z,40.80
2018-05-26T19:02:31.620Z,40.60
2018-05-26T19:04:59.817Z,40.10
2018-05-26T19:07:27.266Z,40.00
2018-05-26T19:09:54.716Z,41.60
2018-05-26T19:12:22.927Z,40.80
2018-05-26T19:14:50.371Z,40.80
2018-05-26T19:17:17.812Z,40.60
2018-05-26T19:19:46.932Z,41.50
2018-05-26T19:22:14.374Z,41.40
2018-05-26T19:24:41.806Z,41.50
2018-05-26T19:27:10.032Z,42.00
2018-05-26T19:29:37.455Z,41.50
2018-05-26T19:32:04.891Z,41.30
2018-05-26T19:34:33.101Z,41.20
2018-05-26T19:37:00.559Z,41.60
2018-05-26T19:39:27.979Z,41.80
2018-05-26T19:41:55.419Z,42.00
2018-05-26T19:44:22.847Z,42.20
2018-05-26T19:46:50.300Z,42.40
2018-05-26T19:49:17.735Z,43.10
2018-05-26T19:51:45.185Z,42.60
2018-05-26T19:54:13.512Z,42.80
2018-05-26T19:56:41.148Z,42.80
2018-05-26T19:59:08.568Z,43.30
2018-05-26T20:01:36.033Z,44.00
2018-05-26T20:04:03.455Z,43.50
2018-05-26T20:06:30.888Z,45.20
2018-05-26T20:08:58.320Z,44.10
2018-05-26T20:11:25.785Z,44.10
2018-05-26T20:13:53.235Z,43.30
2018-05-26T20:16:21.440Z,42.30
2018-05-26T20:18:48.877Z,42.30
2018-05-26T20:21:17.071Z,42.60
2018-05-26T20:23:44.505Z,42.60
2018-05-26T20:26:11.939Z,42.20
2018-05-26T20:28:39.377Z,41.70
2018-05-26T20:31:06.798Z,41.50
2018-05-26T20:33:34.295Z,41.90
2018-05-26T20:36:01.715Z,41.60
2018-05-26T20:38:29.152Z,41.50
2018-05-26T20:40:56.596Z,41.70
2018-05-26T20:43:24.800Z,41.50
2018-05-26T20:45:52.236Z,41.50
2018-05-26T20:48:19.683Z,41.30
2018-05-26T20:50:47.887Z,41.30
2018-05-26T20:53:15.338Z,41.10
2018-05-26T20:55:42.767Z,41.00
2018-05-26T20:58:10.972Z,41.60
2018-05-26T21:00:38.401Z,41.30
2018-05-26T21:03:06.604Z,42.10
2018-05-26T21:05:34.048Z,42.10
2018-05-26T21:08:02.251Z,41.90
2018-05-26T21:10:29.684Z,41.90
2018-05-26T21:12:57.123Z,42.20
2018-05-26T21:15:25.323Z,43.20
2018-05-26T21:17:52.756Z,43.20
2018-05-26T21:20:20.969Z,43.80
2018-05-26T21:22:48.396Z,43.70
2018-05-26T21:25:16.604Z,45.00
2018-05-26T21:27:44.093Z,45.00
2018-05-26T21:30:11.495Z,45.40
2018-05-26T21:32:38.936Z,45.80
2018-05-26T21:35:07.354Z,46.80
2018-05-26T21:37:34.791Z,46.70
2018-05-26T21:40:02.216Z,47.00
2018-05-26T21:42:29.652Z,47.60
2018-05-26T21:44:57.103Z,48.10
2018-05-26T21:47:24.547Z,48.20
2018-05-26T21:49:51.973Z,48.50
2018-05-26T21:52:19.415Z,49.50
2018-05-26T21:54:48.015Z,50.20
2018-05-26T21:57:15.453Z,50.20
2018-05-26T21:59:43.648Z,50.20
2018-05-26T22:02:11.081Z,50.20
2018-05-26T22:04:38.498Z,50.80
2018-05-26T22:07:05.935Z,50.80
2018-05-26T22:09:33.368Z,51.00
2018-05-26T22:12:01.580Z,51.50
2018-05-26T22:14:29.027Z,51.40
2018-05-26T22:16:56.453Z,51.50
2018-05-26T22:19:24.663Z,52.40
2018-05-26T22:21:52.094Z,52.40
2018-05-26T22:24:19.532Z,52.30
2018-05-26T22:26:48.460Z,52.80
2018-05-26T22:29:15.924Z,52.80
2018-05-26T22:31:44.092Z,52.80
2018-05-26T22:34:11.520Z,52.80
2018-05-26T22:36:39.715Z,53.90
2018-05-26T22:39:07.159Z,53.90
2018-05-26T22:41:35.900Z,53.60
2018-05-26T22:44:03.345Z,53.50
2018-05-26T22:46:30.776Z,53.90
2018-05-26T22:48:58.254Z,53.40
2018-05-26T22:51:25.699Z,54.10
2018-05-26T22:53:53.558Z,54.50
2018-05-26T22:56:20.987Z,55.30
2018-05-26T22:58:48.419Z,55.30
2018-05-26T23:01:15.855Z,55.90
2018-05-26T23:03:43.296Z,55.70
2018-05-26T23:06:10.745Z,55.70
2018-05-26T23:08:38.255Z,55.80
2018-05-26T23:11:05.695Z,55.70
2018-05-26T23:13:33.137Z,55.80
2018-05-26T23:16:00.572Z,56.10
2018-05-26T23:18:28.776Z,57.00
2018-05-26T23:20:56.214Z,57.00
2018-05-26T23:23:23.662Z,57.00
2018-05-26T23:25:51.864Z,57.40
2018-05-26T23:28:19.303Z,57.30
2018-05-26T23:30:47.548Z,58.00
2018-05-26T23:33:15.770Z,57.80
2018-05-26T23:35:43.181Z,57.80
2018-05-26T23:38:10.625Z,57.80
2018-05-26T23:40:38.143Z,57.80
2018-05-26T23:43:05.877Z,57.90
2018-05-26T23:45:34.071Z,57.90
2018-05-26T23:48:01.504Z,57.90
2018-05-26T23:50:29.704Z,58.70
2018-05-26T23:52:57.135Z,58.60
2018-05-26T23:55:25.343Z,59.10
2018-05-26T23:57:52.767Z,59.10
